Time;durP1;ratioP1;P1;durP2;ratioP2;P2;SDS_P1;SDS_P2;PMS_P1;PMS_P2;Temp;Humidity;BMP_temperature;BMP_pressure;BME280_temperature;BME280_humidity;BME280_pressure;Samples;Min_cycle;Max_cycle;Signal;HPM_P1;HPM_P2
2021/12/15 00:01:04;;;;;;;38.20;15.25;;;9.00;86.40;;;;;;6202530;28;20054;-80
2021/12/15 00:04:07;;;;;;;47.10;16.45;;;9.00;86.40;;;;;;6199989;28;20463;-79
2021/12/15 00:07:11;;;;;;;41.25;15.30;;;9.00;86.30;;;;;;6202615;28;20088;-79
2021/12/15 00:10:13;;;;;;;49.15;16.35;;;9.00;86.30;;;;;;6202172;28;20105;-79
2021/12/15 00:13:17;;;;;;;41.83;15.73;;;9.10;86.30;;;;;;6204041;28;20096;-79
2021/12/15 00:16:19;;;;;;;52.70;16.83;;;9.10;86.30;;;;;;6202647;28;20054;-80
2021/12/15 00:19:21;;;;;;;45.67;16.30;;;9.10;86.10;;;;;;6203219;28;20054;-79
2021/12/15 00:22:24;;;;;;;43.03;14.85;;;9.20;86.10;;;;;;6204682;28;20050;-80
2021/12/15 00:25:29;;;;;;;42.83;17.60;;;9.20;86.10;;;;;;6203599;28;20038;-80
2021/12/15 00:28:31;;;;;;;53.05;18.15;;;9.20;86.10;;;;;;6202860;28;20046;-80
2021/12/15 00:31:33;;;;;;;55.42;18.40;;;9.20;86.20;;;;;;6203101;28;20746;-79
2021/12/15 00:34:38;;;;;;;47.28;16.40;;;9.20;86.30;;;;;;6203400;28;20050;-79
2021/12/15 00:37:41;;;;;;;51.58;16.23;;;9.20;86.30;;;;;;6203649;28;20058;-79
2021/12/15 00:40:43;;;;;;;38.45;14.60;;;9.20;86.20;;;;;;6203434;28;20070;-79
2021/12/15 00:43:45;;;;;;;37.33;13.95;;;9.10;86.30;;;;;;6202937;28;20208;-80
2021/12/15 00:46:50;;;;;;;41.33;15.48;;;9.10;86.40;;;;;;6203038;28;20049;-80
2021/12/15 00:49:52;;;;;;;39.35;14.75;;;9.10;86.40;;;;;;6202451;28;20054;-80
2021/12/15 00:52:55;;;;;;;37.42;15.93;;;9.00;86.40;;;;;;6202993;28;20047;-79
2021/12/15 00:55:57;;;;;;;41.17;15.15;;;9.10;86.40;;;;;;6202976;28;20048;-80
2021/12/15 00:58:59;;;;;;;43.30;14.63;;;9.10;86.40;;;;;;6203078;28;20052;-80
2021/12/15 01:02:02;;;;;;;42.50;15.98;;;9.00;86.20;;;;;;6202515;28;20095;-79
2021/12/15 01:05:07;;;;;;;40.72;15.70;;;9.00;86.50;;;;;;6194660;28;20059;-80
2021/12/15 01:08:15;;;;;;;53.28;17.73;;;9.00;86.40;;;;;;6199372;28;20046;-80
2021/12/15 01:11:24;;;;;;;;;;;9.00;86.40;;;;;;6202854;28;20490;-80
2021/12/15 01:14:33;;;;;;;36.95;14.63;;;9.00;86.50;;;;;;6201750;28;19921;-79
2021/12/15 01:20:59;;;;;;;47.20;16.27;;;9.00;86.50;;;;;;6202778;28;20424;-79
2021/12/15 01:24:02;;;;;;;54.00;18.27;;;9.00;86.40;;;;;;6197031;28;20072;-80
2021/12/15 01:27:04;;;;;;;49.08;16.77;;;9.00;86.40;;;;;;6202158;28;20132;-79
2021/12/15 01:30:08;;;;;;;44.22;16.27;;;9.00;86.40;;;;;;6201490;28;20046;-79
2021/12/15 01:33:11;;;;;;;49.15;17.85;;;9.10;86.40;;;;;;6202126;28;20130;-79
2021/12/15 01:36:13;;;;;;;57.25;16.77;;;9.00;86.50;;;;;;6201858;28;20051;-79
2021/12/15 01:39:17;;;;;;;47.17;16.85;;;9.10;86.40;;;;;;6202749;28;20046;-79
2021/12/15 01:42:19;;;;;;;61.85;17.10;;;9.10;86.40;;;;;;6201870;28;20420;-79
2021/12/15 01:48:42;;;;;;;40.65;15.45;;;9.10;86.50;;;;;;6202054;28;20039;-79
2021/12/15 01:51:44;;;;;;;35.03;16.45;;;9.10;86.50;;;;;;6201803;28;20056;-79
2021/12/15 01:54:50;;;;;;;45.80;17.08;;;9.00;86.50;;;;;;6204603;28;20057;-79
2021/12/15 01:57:53;;;;;;;37.63;14.05;;;9.00;86.60;;;;;;6207469;28;20061;-79
2021/12/15 02:00:58;;;;;;;40.42;15.52;;;8.90;86.60;;;;;;6206171;28;20050;-79
2021/12/15 02:04:00;;;;;;;45.72;16.52;;;8.90;86.60;;;;;;6206969;28;20512;-80
2021/12/15 02:07:04;;;;;;;43.88;15.25;;;8.90;86.60;;;;;;6199056;28;20053;-79
2021/12/15 02:10:08;;;;;;;45.72;16.65;;;9.00;86.60;;;;;;6181296;28;20054;-79
2021/12/15 02:13:14;;;;;;;41.53;14.93;;;9.00;86.60;;;;;;6181917;28;20103;-79
2021/12/15 02:16:15;;;;;;;51.92;16.05;;;8.90;86.60;;;;;;6181692;28;20114;-79
2021/12/15 02:19:17;;;;;;;39.95;14.10;;;8.90;86.70;;;;;;6181141;28;20141;-79
2021/12/15 02:22:21;;;;;;;42.80;15.43;;;8.90;86.80;;;;;;6179909;28;20054;-79
2021/12/15 02:25:23;;;;;;;50.90;15.38;;;8.90;86.80;;;;;;6179857;28;20053;-79
2021/12/15 02:28:24;;;;;;;46.67;16.65;;;8.90;86.80;;;;;;6180286;28;20465;-79
2021/12/15 02:31:40;;;;;;;50.38;17.77;;;8.90;86.80;;;;;;6180092;28;20501;-78
2021/12/15 02:38:02;;;;;;;45.78;16.17;;;8.90;86.70;;;;;;6192530;28;20125;-79
2021/12/15 02:41:09;;;;;;;44.58;15.80;;;9.00;86.70;;;;;;6203894;28;20426;-80
2021/12/15 02:44:15;;;;;;;38.92;15.82;;;8.90;86.70;;;;;;6203868;28;20834;-80
2021/12/15 02:47:21;;;;;;;45.67;17.00;;;8.90;86.80;;;;;;6204307;28;20050;-79
2021/12/15 02:50:27;;;;;;;49.90;17.05;;;8.90;86.80;;;;;;6204208;28;20416;-80
2021/12/15 02:53:30;;;;;;;51.13;16.17;;;8.90;86.80;;;;;;6204106;28;20042;-79
2021/12/15 02:56:32;;;;;;;44.33;15.98;;;8.90;86.90;;;;;;6204023;28;20153;-79
2021/12/15 02:59:45;;;;;;;49.30;15.35;;;8.90;86.90;;;;;;6204249;28;20065;-79
2021/12/15 03:06:19;;;;;;;48.92;16.65;;;8.90;86.80;;;;;;6203535;28;20081;-79
2021/12/15 03:16:16;;;;;;;42.78;16.40;;;8.90;86.70;;;;;;6172082;28;20051;-79
2021/12/15 03:19:18;;;;;;;46.50;15.75;;;8.90;86.80;;;;;;6181399;28;20559;-79
2021/12/15 03:22:20;;;;;;;50.30;15.18;;;8.90;86.80;;;;;;6179996;28;20584;-79
2021/12/15 03:25:25;;;;;;;41.92;14.70;;;8.90;87.30;;;;;;6179661;28;20073;-79
2021/12/15 03:35:19;;;;;;;47.42;14.80;;;8.90;86.90;;;;;;6180298;28;20560;-80
2021/12/15 03:38:21;;;;;;;46.17;15.25;;;8.90;86.80;;;;;;6181112;28;20089;-79
2021/12/15 03:41:24;;;;;;;53.90;17.33;;;8.90;87.40;;;;;;6179882;28;20097;-80
2021/12/15 03:44:26;;;;;;;49.53;17.02;;;8.90;86.90;;;;;;6180330;28;20106;-80
2021/12/15 03:47:32;;;;;;;48.75;16.15;;;8.90;87.00;;;;;;6181211;28;20047;-80
2021/12/15 03:50:36;;;;;;;61.00;18.48;;;8.90;86.80;;;;;;6181801;28;20050;-80
2021/12/15 03:53:38;;;;;;;49.63;17.55;;;8.80;86.80;;;;;;6180339;28;20051;-80
2021/12/15 03:56:43;;;;;;;49.22;15.55;;;8.80;87.00;;;;;;6179831;28;20046;-80
2021/12/15 03:59:45;;;;;;;48.78;16.50;;;8.80;87.20;;;;;;6180306;28;20061;-80
2021/12/15 04:02:49;;;;;;;52.95;16.67;;;8.70;87.20;;;;;;6180319;28;20054;-80
2021/12/15 04:05:51;;;;;;;37.30;13.85;;;8.70;87.40;;;;;;6178939;28;20069;-80
2021/12/15 04:08:55;;;;;;;57.80;18.13;;;8.70;87.40;;;;;;6192381;28;20054;-80
2021/12/15 04:12:00;;;;;;;42.45;14.52;;;8.80;87.40;;;;;;6203611;28;20038;-80
2021/12/15 04:15:20;;;;;;;47.80;15.00;;;8.70;87.40;;;;;;6201482;28;20106;-79
2021/12/15 04:18:23;;;;;;;51.20;14.52;;;8.80;87.50;;;;;;6200059;28;20073;-80
2021/12/15 04:21:25;;;;;;;41.22;14.77;;;8.70;87.50;;;;;;6201584;28;20082;-79
2021/12/15 04:24:27;;;;;;;60.75;18.55;;;8.70;87.40;;;;;;6201481;28;20054;-79
2021/12/15 04:27:30;;;;;;;51.05;16.88;;;8.80;87.50;;;;;;6202047;28;20130;-78
2021/12/15 04:30:35;;;;;;;48.50;17.55;;;8.80;87.50;;;;;;6199429;28;20052;-80
2021/12/15 04:33:43;;;;;;;53.75;16.70;;;8.80;87.50;;;;;;6200016;28;20046;-79
2021/12/15 04:36:48;;;;;;;56.35;16.95;;;8.80;87.50;;;;;;6205246;28;20038;-80
2021/12/15 04:39:50;;;;;;;58.20;17.70;;;8.80;87.60;;;;;;6200818;28;20049;-79
2021/12/15 04:42:55;;;;;;;54.70;19.60;;;8.80;87.50;;;;;;6200253;28;20504;-80
2021/12/15 04:45:57;;;;;;;60.78;17.67;;;8.80;87.50;;;;;;6199229;28;20048;-81
2021/12/15 04:49:01;;;;;;;56.22;16.75;;;8.80;87.40;;;;;;6198590;28;20538;-80
2021/12/15 04:52:04;;;;;;;59.03;17.88;;;8.80;87.50;;;;;;6199906;28;20109;-79
2021/12/15 04:55:07;;;;;;;54.08;15.43;;;8.80;87.60;;;;;;6199466;28;20188;-79
2021/12/15 04:58:13;;;;;;;56.80;19.60;;;8.80;87.60;;;;;;6199898;28;20046;-79
2021/12/15 05:01:16;;;;;;;65.63;18.88;;;8.80;87.60;;;;;;6201243;28;20129;-79
2021/12/15 05:04:18;;;;;;;70.50;19.98;;;8.80;87.60;;;;;;6200741;28;20050;-79
2021/12/15 05:07:21;;;;;;;61.95;18.30;;;8.80;87.60;;;;;;6199631;28;20141;-80
2021/12/15 05:10:24;;;;;;;68.35;18.67;;;8.80;87.60;;;;;;6182498;28;20053;-79
2021/12/15 05:13:28;;;;;;;62.03;19.38;;;8.80;87.50;;;;;;6176769;28;20054;-79
2021/12/15 05:16:30;;;;;;;70.78;19.17;;;8.80;87.60;;;;;;6175567;28;20620;-78
2021/12/15 05:19:32;;;;;;;70.97;20.63;;;8.80;87.60;;;;;;6174177;28;20189;-78
2021/12/15 05:22:34;;;;;;;70.47;18.13;;;8.80;87.70;;;;;;6175733;28;20077;-79
2021/12/15 05:25:36;;;;;;;85.55;22.27;;;8.70;87.70;;;;;;6176660;28;20047;-79
2021/12/15 05:28:40;;;;;;;76.85;21.80;;;8.70;87.90;;;;;;6177204;28;20156;-79
2021/12/15 05:31:42;;;;;;;75.13;20.75;;;8.70;88.00;;;;;;6179474;28;20094;-79
2021/12/15 05:34:44;;;;;;;93.75;22.73;;;8.70;88.10;;;;;;6177546;28;20424;-80
2021/12/15 05:37:47;;;;;;;93.43;21.55;;;8.70;88.00;;;;;;6176352;28;20509;-78
2021/12/15 05:40:50;;;;;;;113.22;27.30;;;8.80;88.00;;;;;;6174786;28;20489;-79
2021/12/15 05:43:53;;;;;;;111.38;22.63;;;8.80;87.90;;;;;;6175479;28;20043;-79
2021/12/15 05:46:57;;;;;;;111.88;22.48;;;8.80;88.00;;;;;;6176114;28;20059;-79
2021/12/15 05:49:59;;;;;;;93.93;22.20;;;8.70;88.10;;;;;;6174687;28;20090;-78
2021/12/15 05:53:01;;;;;;;125.97;26.33;;;8.70;88.30;;;;;;6174444;28;20133;-79
2021/12/15 05:56:04;;;;;;;104.45;22.92;;;8.70;88.30;;;;;;6174477;28;20055;-78
2021/12/15 05:59:08;;;;;;;122.72;24.25;;;8.70;88.40;;;;;;6174591;28;20110;-80
2021/12/15 06:02:09;;;;;;;134.05;26.70;;;8.70;88.50;;;;;;6174814;28;20057;-78
2021/12/15 06:05:13;;;;;;;126.22;27.55;;;8.80;88.60;;;;;;6174715;28;20054;-79
2021/12/15 06:08:15;;;;;;;131.27;26.95;;;8.80;88.50;;;;;;6174835;28;20047;-78
2021/12/15 06:11:17;;;;;;;125.38;24.45;;;8.80;88.40;;;;;;6191176;28;20145;-79
2021/12/15 06:14:24;;;;;;;136.75;27.75;;;8.80;88.50;;;;;;6197651;28;20059;-80
2021/12/15 06:17:26;;;;;;;118.55;25.52;;;8.80;88.50;;;;;;6198350;28;20060;-78
2021/12/15 06:20:29;;;;;;;128.90;27.13;;;8.80;88.40;;;;;;6199111;28;20523;-79
2021/12/15 06:23:33;;;;;;;133.90;27.70;;;8.80;88.80;;;;;;6199023;28;20060;-79
2021/12/15 06:26:35;;;;;;;130.80;28.60;;;8.80;89.10;;;;;;6198723;28;20057;-79
2021/12/15 06:29:38;;;;;;;128.18;25.27;;;8.90;89.10;;;;;;6199569;28;20118;-79
2021/12/15 06:32:40;;;;;;;134.77;28.38;;;8.80;88.80;;;;;;6198298;28;20179;-78
2021/12/15 06:35:51;;;;;;;147.10;28.52;;;8.80;88.70;;;;;;6197097;28;20056;-79
2021/12/15 06:38:55;;;;;;;139.55;28.38;;;8.80;88.80;;;;;;6198015;28;20663;-81
2021/12/15 06:41:57;;;;;;;137.70;28.60;;;8.80;88.90;;;;;;6201717;28;20129;-79
2021/12/15 06:45:00;;;;;;;125.68;25.52;;;8.80;89.20;;;;;;6202432;28;20069;-79
2021/12/15 07:01:24;;;;;;;126.47;26.10;;;8.80;89.30;;;;;;6200125;28;20065;-80
2021/12/15 07:04:26;;;;;;;112.85;26.45;;;8.90;89.20;;;;;;6203246;28;20133;-84
2021/12/15 07:07:28;;;;;;;129.25;26.00;;;8.90;89.10;;;;;;6205183;28;20563;-79
2021/12/15 07:10:33;;;;;;;108.65;25.67;;;8.90;89.20;;;;;;6200942;28;20046;-80
2021/12/15 07:13:37;;;;;;;108.88;27.15;;;8.90;89.10;;;;;;6190252;28;20090;-80
2021/12/15 07:16:44;;;;;;;93.47;22.38;;;9.00;88.80;;;;;;6202413;28;20420;-80
2021/12/15 07:20:05;;;;;;;97.10;22.95;;;9.00;88.60;;;;;;6203588;28;20054;-79
2021/12/15 07:23:09;;;;;;;102.50;24.05;;;9.10;88.50;;;;;;6204088;28;20057;-79
2021/12/15 07:26:11;;;;;;;109.70;24.92;;;9.00;88.60;;;;;;6203657;28;20074;-80
2021/12/15 07:29:13;;;;;;;95.82;22.25;;;9.10;88.50;;;;;;6204272;28;20064;-81
2021/12/15 07:32:17;;;;;;;107.55;23.42;;;9.10;88.40;;;;;;6203410;28;20085;-78
2021/12/15 07:35:20;;;;;;;112.88;26.38;;;9.00;88.50;;;;;;6201060;28;20455;-78
2021/12/15 07:38:22;;;;;;;102.90;23.83;;;9.10;88.80;;;;;;6200359;28;20539;-79
2021/12/15 07:41:28;;;;;;;111.63;22.17;;;9.10;88.60;;;;;;6200788;28;20050;-79
2021/12/15 07:44:31;;;;;;;108.88;27.40;;;9.10;88.40;;;;;;6199858;28;20046;-79
2021/12/15 07:47:35;;;;;;;108.68;25.50;;;9.20;88.40;;;;;;6201513;28;20046;-79
2021/12/15 07:50:39;;;;;;;123.90;25.73;;;9.20;88.50;;;;;;6201517;28;20046;-80
2021/12/15 07:53:42;;;;;;;123.60;25.77;;;9.10;88.30;;;;;;6200890;28;20050;-79
2021/12/15 07:56:44;;;;;;;113.43;25.92;;;9.30;89.80;;;;;;6200634;28;20084;-79
2021/12/15 07:59:46;;;;;;;99.57;23.95;;;9.30;88.50;;;;;;6199478;28;20082;-79
2021/12/15 08:02:49;;;;;;;103.15;23.23;;;9.30;88.10;;;;;;6200323;28;20512;-79
2021/12/15 08:05:53;;;;;;;117.35;24.92;;;9.40;88.00;;;;;;6200249;28;20054;-80
2021/12/15 08:08:56;;;;;;;97.75;22.25;;;9.40;87.80;;;;;;6199767;28;20548;-79
2021/12/15 08:11:58;;;;;;;97.65;22.52;;;9.40;87.50;;;;;;6199367;28;20042;-79
2021/12/15 08:15:00;;;;;;;92.05;22.90;;;9.40;87.70;;;;;;6199312;28;20046;-79
2021/12/15 08:18:04;;;;;;;94.95;23.65;;;9.50;87.30;;;;;;6199594;28;20583;-79
2021/12/15 08:21:06;;;;;;;80.60;20.30;;;9.50;87.10;;;;;;6200163;28;20064;-80
2021/12/15 08:24:08;;;;;;;87.82;20.73;;;9.50;87.00;;;;;;6200117;28;20166;-80
2021/12/15 08:27:09;;;;;;;86.28;21.65;;;9.60;86.80;;;;;;6200785;28;20508;-79
2021/12/15 08:30:19;;;;;;;92.85;22.88;;;9.60;86.60;;;;;;6200606;28;20201;-79
2021/12/15 08:33:24;;;;;;;101.63;21.90;;;9.70;86.60;;;;;;6200499;28;20416;-79
2021/12/15 08:36:26;;;;;;;94.75;22.90;;;9.70;86.50;;;;;;6200500;28;20046;-79
2021/12/15 08:39:28;;;;;;;119.25;24.45;;;9.70;86.50;;;;;;6202142;28;20074;-79
2021/12/15 08:42:30;;;;;;;108.60;23.85;;;9.60;86.40;;;;;;6183553;28;20549;-78
2021/12/15 08:45:33;;;;;;;100.03;25.00;;;9.80;86.40;;;;;;6231570;28;20077;-79
2021/12/15 08:48:47;;;;;;;89.05;22.17;;;9.70;86.30;;;;;;6228720;28;20056;-81
2021/12/15 08:51:49;;;;;;;90.68;21.55;;;9.80;86.40;;;;;;6226291;28;20119;-79
2021/12/15 08:54:53;;;;;;;83.80;20.33;;;9.90;86.30;;;;;;6223709;28;20152;-80
2021/12/15 08:58:20;;;;;;;70.03;18.90;;;9.90;86.10;;;;;;6229494;28;20456;-81
2021/12/15 09:05:24;;;;;;;92.03;19.35;;;10.00;86.00;;;;;;6224332;28;20100;-81
2021/12/15 09:08:38;;;;;;;79.72;22.08;;;10.00;86.00;;;;;;6222139;28;20072;-79
2021/12/15 09:11:42;;;;;;;94.60;22.65;;;10.10;85.80;;;;;;6223832;28;20492;-81
2021/12/15 09:14:44;;;;;;;78.25;19.85;;;10.10;85.60;;;;;;6223284;28;20128;-80
2021/12/15 09:17:47;;;;;;;76.30;23.00;;;10.20;85.50;;;;;;6222972;28;20042;-80
2021/12/15 09:20:50;;;;;;;82.85;19.90;;;10.10;85.50;;;;;;6223960;28;20046;-80
2021/12/15 09:23:53;;;;;;;73.07;20.50;;;10.30;85.50;;;;;;6224119;28;20042;-81
2021/12/15 09:26:55;;;;;;;68.38;19.42;;;10.30;85.30;;;;;;6226437;28;20054;-80
2021/12/15 09:29:57;;;;;;;60.83;17.30;;;10.40;85.90;;;;;;6223490;28;20080;-79
2021/12/15 09:33:00;;;;;;;73.75;20.33;;;10.40;84.70;;;;;;6222793;28;20489;-79
2021/12/15 09:36:05;;;;;;;57.00;17.05;;;10.40;84.50;;;;;;6223510;28;20042;-79
2021/12/15 09:39:12;;;;;;;61.10;19.13;;;10.40;84.80;;;;;;6225150;28;20188;-80
2021/12/15 09:42:19;;;;;;;46.58;17.60;;;10.50;84.80;;;;;;6226830;28;20046;-82
2021/12/15 09:45:35;;;;;;;44.10;17.75;;;10.40;84.30;;;;;;6236715;28;20542;-82
2021/12/15 10:02:21;;;;;;;38.38;15.10;;;10.60;84.10;;;;;;6224348;28;20049;-81
2021/12/15 10:05:38;;;;;;;32.40;12.60;;;10.70;83.60;;;;;;6223799;28;20053;-79
2021/12/15 10:18:46;;;;;;;46.88;16.48;;;10.60;83.50;;;;;;6227950;28;20050;-81
2021/12/15 10:22:13;;;;;;;49.40;24.52;;;10.70;82.90;;;;;;6231917;28;20073;-81
2021/12/15 10:25:20;;;;;;;47.28;19.85;;;10.60;82.60;;;;;;6238777;28;20045;-80
2021/12/15 10:28:23;;;;;;;41.00;18.30;;;10.70;83.00;;;;;;6229362;28;20056;-80
2021/12/15 10:31:27;;;;;;;51.65;27.02;;;10.70;82.80;;;;;;6227463;28;20563;-80
2021/12/15 10:34:29;;;;;;;26.17;14.85;;;10.80;81.80;;;;;;6203008;28;20082;-79
2021/12/15 10:37:31;;;;;;;34.25;13.35;;;10.80;81.90;;;;;;6203154;28;20046;-80
2021/12/15 10:40:40;;;;;;;28.65;13.45;;;10.80;81.50;;;;;;6206921;28;20049;-79
2021/12/15 10:43:45;;;;;;;22.38;10.70;;;10.80;81.70;;;;;;6202654;28;20057;-80
2021/12/15 10:46:51;;;;;;;25.83;11.68;;;10.90;81.50;;;;;;6203282;28;20043;-79
2021/12/15 10:49:53;;;;;;;26.63;11.02;;;10.90;81.50;;;;;;6202469;28;20416;-79
2021/12/15 10:52:58;;;;;;;20.40;8.98;;;11.10;81.00;;;;;;6202699;28;20070;-79
2021/12/15 10:56:09;;;;;;;16.05;7.07;;;11.20;78.80;;;;;;6202240;28;20045;-80
2021/12/15 10:59:12;;;;;;;16.83;9.02;;;11.20;78.30;;;;;;6202676;28;20125;-79
2021/12/15 11:02:21;;;;;;;13.35;6.13;;;11.20;79.10;;;;;;6202163;28;20053;-79
2021/12/15 11:05:23;;;;;;;9.80;3.80;;;11.20;78.00;;;;;;6202266;28;20416;-79
2021/12/15 11:08:26;;;;;;;9.45;3.83;;;11.20;76.30;;;;;;6201922;28;20050;-79
2021/12/15 11:11:29;;;;;;;5.10;2.40;;;11.10;75.20;;;;;;6202468;28;20047;-79
2021/12/15 11:14:33;;;;;;;5.78;2.67;;;10.90;75.30;;;;;;6201795;28;20050;-79
2021/12/15 11:17:37;;;;;;;4.10;2.30;;;10.80;74.80;;;;;;6200684;28;20058;-80
2021/12/15 11:20:42;;;;;;;6.85;3.10;;;10.80;76.00;;;;;;6202149;28;20096;-79
2021/12/15 11:23:45;;;;;;;4.38;2.25;;;10.80;75.20;;;;;;6201792;28;20054;-79
2021/12/15 11:26:48;;;;;;;5.90;3.30;;;10.90;75.10;;;;;;6202600;28;20047;-78
2021/12/15 11:29:50;;;;;;;5.60;3.05;;;10.80;74.80;;;;;;6201042;28;20054;-79
2021/12/15 11:32:54;;;;;;;9.18;4.57;;;10.80;75.40;;;;;;6201743;28;20054;-79
2021/12/15 11:36:00;;;;;;;7.95;3.80;;;10.80;75.10;;;;;;6201095;28;20210;-79
2021/12/15 11:39:06;;;;;;;9.23;4.60;;;10.70;75.30;;;;;;6201869;28;20129;-79
2021/12/15 11:42:09;;;;;;;9.43;5.15;;;10.70;75.90;;;;;;6200634;28;20132;-80
2021/12/15 11:45:13;;;;;;;10.25;4.47;;;10.70;76.10;;;;;;6201398;28;20431;-79
2021/12/15 11:48:19;;;;;;;10.38;5.28;;;10.70;75.90;;;;;;6202083;28;20174;-79
2021/12/15 11:51:32;;;;;;;9.20;4.60;;;10.70;76.20;;;;;;6203672;28;20056;-80
2021/12/15 11:54:36;;;;;;;9.50;5.18;;;10.60;76.30;;;;;;6201597;28;20129;-79
2021/12/15 11:57:39;;;;;;;10.90;5.30;;;10.60;76.60;;;;;;6201022;28;20050;-79
2021/12/15 12:00:41;;;;;;;8.23;4.75;;;10.70;76.80;;;;;;6201251;28;20046;-80
2021/12/15 12:03:43;;;;;;;8.70;4.88;;;10.70;76.60;;;;;;6201321;28;20058;-80
2021/12/15 12:06:47;;;;;;;8.52;4.25;;;10.80;75.80;;;;;;6201926;28;20571;-80
2021/12/15 12:09:52;;;;;;;8.43;5.05;;;10.70;75.90;;;;;;6201345;28;20049;-80
2021/12/15 12:13:15;;;;;;;7.85;4.60;;;10.70;76.10;;;;;;6201113;28;20050;-81
2021/12/15 12:16:22;;;;;;;7.95;4.82;;;10.70;76.00;;;;;;6196024;28;20123;-80
2021/12/15 12:19:24;;;;;;;30.42;13.13;;;10.60;76.00;;;;;;6200730;28;20073;-80
2021/12/15 12:22:28;;;;;;;9.75;5.30;;;10.70;75.90;;;;;;6199835;28;20072;-80
2021/12/15 12:25:35;;;;;;;11.02;4.10;;;10.60;75.50;;;;;;6200043;28;20051;-80
2021/12/15 12:28:40;;;;;;;7.85;4.45;;;10.70;76.00;;;;;;6199712;28;20046;-79
2021/12/15 12:31:42;;;;;;;9.20;4.97;;;10.80;75.30;;;;;;6200196;28;20051;-79
2021/12/15 12:34:44;;;;;;;6.10;3.97;;;10.80;75.40;;;;;;6200177;28;20060;-79
2021/12/15 12:37:52;;;;;;;7.82;4.47;;;10.80;74.90;;;;;;6199712;28;20146;-79
2021/12/15 12:40:58;;;;;;;3.40;1.95;;;10.90;74.70;;;;;;6201227;28;20057;-80
2021/12/15 12:44:05;;;;;;;7.50;4.03;;;10.80;74.50;;;;;;6200282;28;20125;-79
2021/12/15 12:47:21;;;;;;;5.95;2.95;;;10.70;75.00;;;;;;6192539;28;20145;-79
2021/12/15 12:50:51;;;;;;;5.03;2.67;;;10.60;75.00;;;;;;6200016;28;20043;-79
2021/12/15 13:00:44;;;;;;;5.82;3.55;;;10.90;74.00;;;;;;6199776;28;20046;-79
2021/12/15 13:03:51;;;;;;;6.30;3.38;;;10.80;74.10;;;;;;6200164;28;20046;-79
2021/12/15 13:06:53;;;;;;;4.90;2.60;;;10.80;73.90;;;;;;6199240;28;20050;-79
2021/12/15 13:09:55;;;;;;;4.90;3.15;;;10.70;74.10;;;;;;6199575;28;20053;-79
2021/12/15 13:13:12;;;;;;;3.95;2.30;;;10.60;74.30;;;;;;6199865;28;20050;-79
2021/12/15 13:16:24;;;;;;;5.60;2.85;;;10.60;74.20;;;;;;6199233;28;20047;-79
2021/12/15 13:19:28;;;;;;;6.63;2.53;;;10.50;74.20;;;;;;6184246;28;20078;-79
2021/12/15 13:22:37;;;;;;;5.22;2.83;;;10.60;74.40;;;;;;6175495;28;20055;-79
2021/12/15 13:29:23;;;;;;;5.80;2.30;;;10.60;74.20;;;;;;6175533;28;20058;-79
2021/12/15 13:32:32;;;;;;;5.47;2.45;;;10.60;74.20;;;;;;6175444;28;20047;-79
2021/12/15 13:35:40;;;;;;;4.68;2.40;;;10.50;74.60;;;;;;6174960;28;20054;-79
2021/12/15 13:38:45;;;;;;;5.35;2.83;;;10.30;75.00;;;;;;6175733;28;20113;-79
2021/12/15 13:42:00;;;;;;;5.55;3.28;;;10.20;75.10;;;;;;6175629;28;20541;-79
2021/12/15 13:45:02;;;;;;;6.80;2.83;;;10.30;75.30;;;;;;6185620;28;20053;-79
2021/12/15 13:48:06;;;;;;;3.00;2.10;;;10.30;75.10;;;;;;6200999;28;20500;-80
2021/12/15 13:51:08;;;;;;;6.25;3.00;;;10.30;75.30;;;;;;6202850;28;20054;-79
2021/12/15 13:54:22;;;;;;;4.75;2.70;;;10.20;75.30;;;;;;6206495;28;20137;-79
2021/12/15 13:57:28;;;;;;;5.45;2.15;;;10.20;75.10;;;;;;6207670;28;20042;-80
2021/12/15 14:00:34;;;;;;;7.18;3.45;;;10.10;75.30;;;;;;6207882;28;20050;-79
2021/12/15 14:03:43;;;;;;;4.70;2.30;;;10.10;75.70;;;;;;6207325;28;20611;-79
2021/12/15 14:06:44;;;;;;;4.40;2.30;;;10.10;75.60;;;;;;6206718;28;20046;-80
2021/12/15 14:09:46;;;;;;;4.65;2.30;;;10.10;75.90;;;;;;6205910;28;20112;-80
2021/12/15 14:12:53;;;;;;;4.18;1.90;;;10.10;75.60;;;;;;6205776;28;20042;-79
2021/12/15 14:15:55;;;;;;;5.22;1.98;;;10.20;75.40;;;;;;6203549;28;20046;-79
2021/12/15 14:19:00;;;;;;;5.88;1.98;;;10.10;75.70;;;;;;6194193;28;20129;-80
2021/12/15 14:22:06;;;;;;;6.13;2.53;;;10.00;75.00;;;;;;6179139;28;20057;-80
2021/12/15 14:25:09;;;;;;;4.45;2.45;;;10.00;75.30;;;;;;6179198;28;20397;-79
2021/12/15 14:28:13;;;;;;;4.22;2.42;;;10.00;75.40;;;;;;6179955;28;20051;-79
2021/12/15 14:31:17;;;;;;;4.13;2.35;;;10.00;75.80;;;;;;6181227;28;20061;-79
2021/12/15 14:34:23;;;;;;;3.22;1.95;;;10.10;75.40;;;;;;6179212;28;20043;-79
2021/12/15 14:37:25;;;;;;;6.00;2.47;;;10.00;75.50;;;;;;6179903;28;20070;-79
2021/12/15 14:40:28;;;;;;;4.50;2.65;;;10.00;75.60;;;;;;6179196;28;20500;-79
2021/12/15 14:43:30;;;;;;;4.50;2.42;;;10.00;75.40;;;;;;6179179;28;20512;-79
2021/12/15 14:46:34;;;;;;;3.80;2.75;;;10.00;75.60;;;;;;6202745;28;20061;-79
2021/12/15 14:49:40;;;;;;;5.70;2.83;;;10.10;75.60;;;;;;6202294;28;20043;-79
2021/12/15 14:52:44;;;;;;;4.13;2.40;;;10.10;75.40;;;;;;6201432;28;20046;-79
2021/12/15 14:55:46;;;;;;;4.50;2.33;;;10.10;75.50;;;;;;6201813;28;20139;-79
2021/12/15 14:58:55;;;;;;;3.60;2.33;;;10.10;75.10;;;;;;6202031;28;20137;-79
2021/12/15 15:02:00;;;;;;;2.88;2.10;;;10.00;75.20;;;;;;6200441;28;20042;-78
2021/12/15 15:05:08;;;;;;;6.03;3.05;;;10.00;75.40;;;;;;6200858;28;20046;-79
2021/12/15 15:08:13;;;;;;;3.90;2.13;;;10.00;75.30;;;;;;6200933;28;20046;-78
2021/12/15 15:11:16;;;;;;;4.75;2.80;;;10.00;75.30;;;;;;6201921;28;20137;-79
2021/12/15 15:14:28;;;;;;;4.75;3.05;;;9.90;75.50;;;;;;6201710;28;20104;-81
2021/12/15 15:17:35;;;;;;;5.97;3.88;;;9.80;75.80;;;;;;6201411;28;20524;-80
2021/12/15 15:20:43;;;;;;;7.35;3.53;;;9.80;75.80;;;;;;6194375;28;20094;-80
2021/12/15 15:23:47;;;;;;;6.28;3.35;;;9.70;75.90;;;;;;6203566;28;20082;-78
2021/12/15 15:26:54;;;;;;;7.22;4.15;;;9.70;76.20;;;;;;6203259;28;20072;-79
2021/12/15 15:29:59;;;;;;;5.90;2.83;;;9.70;76.20;;;;;;6201963;28;20541;-78
2021/12/15 15:33:07;;;;;;;7.32;3.08;;;9.70;76.30;;;;;;6200685;28;20428;-80
2021/12/15 15:36:13;;;;;;;7.88;3.83;;;9.70;76.70;;;;;;6200960;28;20050;-80
2021/12/15 15:39:15;;;;;;;8.18;3.58;;;9.60;76.70;;;;;;6201774;28;20046;-80
2021/12/15 15:42:23;;;;;;;4.13;2.60;;;9.60;77.00;;;;;;6204005;28;20050;-81
2021/12/15 15:45:38;;;;;;;3.58;2.33;;;9.70;76.70;;;;;;6204179;28;20043;-81
2021/12/15 15:48:42;;;;;;;4.80;3.00;;;9.80;76.70;;;;;;6202790;28;20430;-80
2021/12/15 15:51:46;;;;;;;5.55;3.80;;;9.90;76.30;;;;;;6205878;28;20054;-80
2021/12/15 15:54:48;;;;;;;6.07;3.58;;;9.80;76.10;;;;;;6206419;28;20113;-80
2021/12/15 15:57:52;;;;;;;6.25;3.20;;;9.80;76.10;;;;;;6205321;28;20042;-81
2021/12/15 16:00:58;;;;;;;4.93;3.15;;;9.70;76.40;;;;;;6206000;28;20110;-81
2021/12/15 16:04:02;;;;;;;5.35;3.22;;;9.60;76.80;;;;;;6206853;28;20053;-80
2021/12/15 16:07:06;;;;;;;5.15;3.17;;;9.60;76.70;;;;;;6205898;28;20057;-81
2021/12/15 16:10:10;;;;;;;7.15;3.45;;;9.60;76.70;;;;;;6205772;28;20047;-79
2021/12/15 16:13:16;;;;;;;4.68;3.03;;;9.60;76.80;;;;;;6225737;22;20137;-79
2021/12/15 16:16:29;;;;;;;7.75;3.67;;;9.60;76.70;;;;;;6201378;28;20054;-79
2021/12/15 16:19:37;;;;;;;8.35;3.53;;;9.50;77.00;;;;;;6202633;28;20085;-79
2021/12/15 16:23:00;;;;;;;6.57;3.70;;;9.50;77.30;;;;;;6193390;28;20065;-78
2021/12/15 16:26:05;;;;;;;9.45;3.20;;;9.50;77.00;;;;;;6201406;28;20046;-79
2021/12/15 16:29:09;;;;;;;6.07;3.80;;;9.40;77.10;;;;;;6201570;28;20419;-79
2021/12/15 16:32:14;;;;;;;11.65;6.40;;;9.40;77.50;;;;;;6201988;28;20054;-79
2021/12/15 16:35:19;;;;;;;8.45;4.18;;;9.30;77.50;;;;;;6202003;28;20047;-80
2021/12/15 16:38:26;;;;;;;7.78;4.60;;;9.30;77.90;;;;;;6201781;28;20050;-80
2021/12/15 16:41:34;;;;;;;5.63;3.50;;;9.30;77.70;;;;;;6202010;28;20046;-80
2021/12/15 16:44:45;;;;;;;11.23;4.50;;;9.30;77.80;;;;;;6201657;28;20296;-82
2021/12/15 16:47:48;;;;;;;6.85;4.35;;;9.30;77.70;;;;;;6203920;28;20080;-81
2021/12/15 16:50:53;;;;;;;8.20;5.30;;;9.40;77.90;;;;;;6204631;28;20534;-82
2021/12/15 16:54:04;;;;;;;10.10;5.18;;;9.30;77.50;;;;;;6204103;28;20048;-81
2021/12/15 16:57:08;;;;;;;8.00;4.65;;;9.30;77.50;;;;;;6202152;28;20052;-80
2021/12/15 17:00:16;;;;;;;8.38;4.25;;;9.30;77.50;;;;;;6202127;28;20066;-79
2021/12/15 17:03:18;;;;;;;10.73;4.53;;;9.30;77.50;;;;;;6203260;28;20054;-80
2021/12/15 17:06:23;;;;;;;8.45;4.82;;;9.20;77.80;;;;;;6202176;28;20129;-80
2021/12/15 17:09:30;;;;;;;7.80;5.10;;;9.30;78.00;;;;;;6202512;28;20052;-78
2021/12/15 17:12:36;;;;;;;8.05;4.75;;;9.40;77.80;;;;;;6202283;28;20053;-79